Navy Sup Dpt, Pennsylvania
Current Conditions -  °F | °C
As of 11:56 PM on Wednesday 26 Nov 2014 (Local Time) from KCXY Reporting Station
Overcast Overcast  
Wind Chill: 29°   Ceiling: 7000
Heat Index: 35°   Visibility: 10mi
Dew Point: 29°   Wind: 7mph
Humidity: 78%   Direction: 300°WNW
Pressure: 29.97"   Gusts: NA
Location:  40.208°N, 77.0098°W
Report Text: KCXY 270456Z AUTO 30006KT 10SM FEW024 BKN070 OVC080 02/M02 A2997 RMK AO2 SLP154 T00171017 400670006
Loading
Personal Weather Stations






























Interactive Weather Map New forecast layout! Learn more

10-Day Weather Forecast

Advertisements
Track Severe Weather on mobile